sensor_id;sensor_type;location;lat;lon;timestamp;P1;durP1;ratioP1;P2;durP2;ratioP2
11771;SDS011;12556;55.748;13.194;2022-07-25T00:01:13;3.73;;;3.10;;
11771;SDS011;12556;55.748;13.194;2022-07-25T00:03:40;5.27;;;3.40;;
11771;SDS011;12556;55.748;13.194;2022-07-25T00:06:07;4.03;;;3.50;;
11771;SDS011;12556;55.748;13.194;2022-07-25T00:08:34;3.30;;;3.00;;
11771;SDS011;12556;55.748;13.194;2022-07-25T00:11:01;4.63;;;3.50;;
11771;SDS011;12556;55.748;13.194;2022-07-25T00:13:28;4.13;;;3.23;;
11771;SDS011;12556;55.748;13.194;2022-07-25T00:15:56;4.73;;;3.33;;
11771;SDS011;12556;55.748;13.194;2022-07-25T00:18:23;6.13;;;3.50;;
11771;SDS011;12556;55.748;13.194;2022-07-25T00:20:50;4.53;;;3.43;;
11771;SDS011;12556;55.748;13.194;2022-07-25T00:23:17;6.93;;;3.50;;
11771;SDS011;12556;55.748;13.194;2022-07-25T00:25:44;5.70;;;3.17;;
11771;SDS011;12556;55.748;13.194;2022-07-25T00:28:10;6.23;;;3.50;;
11771;SDS011;12556;55.748;13.194;2022-07-25T00:30:37;4.73;;;3.40;;
11771;SDS011;12556;55.748;13.194;2022-07-25T00:33:06;3.73;;;3.43;;
11771;SDS011;12556;55.748;13.194;2022-07-25T00:35:33;4.33;;;3.50;;
11771;SDS011;12556;55.748;13.194;2022-07-25T00:38:00;5.77;;;3.40;;
11771;SDS011;12556;55.748;13.194;2022-07-25T00:40:26;3.73;;;3.43;;
11771;SDS011;12556;55.748;13.194;2022-07-25T00:42:53;7.60;;;3.40;;
11771;SDS011;12556;55.748;13.194;2022-07-25T00:45:20;3.87;;;3.57;;
11771;SDS011;12556;55.748;13.194;2022-07-25T00:47:47;3.90;;;3.60;;
11771;SDS011;12556;55.748;13.194;2022-07-25T00:50:16;3.43;;;3.13;;
11771;SDS011;12556;55.748;13.194;2022-07-25T00:52:43;4.40;;;3.23;;
11771;SDS011;12556;55.748;13.194;2022-07-25T00:55:10;4.90;;;3.50;;
11771;SDS011;12556;55.748;13.194;2022-07-25T00:57:37;5.90;;;3.47;;
11771;SDS011;12556;55.748;13.194;2022-07-25T01:00:05;5.17;;;3.70;;
11771;SDS011;12556;55.748;13.194;2022-07-25T01:02:34;4.83;;;3.30;;
11771;SDS011;12556;55.748;13.194;2022-07-25T01:05:01;3.90;;;3.37;;
11771;SDS011;12556;55.748;13.194;2022-07-25T01:07:30;4.00;;;3.60;;
11771;SDS011;12556;55.748;13.194;2022-07-25T01:09:58;5.33;;;3.87;;
11771;SDS011;12556;55.748;13.194;2022-07-25T01:12:25;6.00;;;3.40;;
11771;SDS011;12556;55.748;13.194;2022-07-25T01:14:52;5.43;;;3.87;;
11771;SDS011;12556;55.748;13.194;2022-07-25T01:17:19;3.97;;;3.43;;
11771;SDS011;12556;55.748;13.194;2022-07-25T01:19:46;4.43;;;3.33;;
11771;SDS011;12556;55.748;13.194;2022-07-25T01:22:16;5.77;;;3.60;;
11771;SDS011;12556;55.748;13.194;2022-07-25T01:24:43;5.60;;;3.30;;
11771;SDS011;12556;55.748;13.194;2022-07-25T01:27:10;6.00;;;3.53;;
11771;SDS011;12556;55.748;13.194;2022-07-25T01:29:37;5.77;;;3.60;;
11771;SDS011;12556;55.748;13.194;2022-07-25T01:32:04;4.83;;;3.53;;
11771;SDS011;12556;55.748;13.194;2022-07-25T01:34:31;4.43;;;4.00;;
11771;SDS011;12556;55.748;13.194;2022-07-25T01:36:58;6.63;;;3.90;;
11771;SDS011;12556;55.748;13.194;2022-07-25T01:39:26;5.57;;;3.87;;
11771;SDS011;12556;55.748;13.194;2022-07-25T01:41:53;6.73;;;3.80;;
11771;SDS011;12556;55.748;13.194;2022-07-25T01:44:20;5.50;;;3.53;;
11771;SDS011;12556;55.748;13.194;2022-07-25T01:46:47;4.10;;;3.70;;
11771;SDS011;12556;55.748;13.194;2022-07-25T01:49:13;3.83;;;3.40;;
11771;SDS011;12556;55.748;13.194;2022-07-25T01:51:40;4.80;;;3.40;;
11771;SDS011;12556;55.748;13.194;2022-07-25T01:54:07;7.33;;;4.00;;
11771;SDS011;12556;55.748;13.194;2022-07-25T01:56:35;4.23;;;3.43;;
11771;SDS011;12556;55.748;13.194;2022-07-25T01:59:02;7.20;;;3.77;;
11771;SDS011;12556;55.748;13.194;2022-07-25T02:01:29;6.67;;;3.87;;
11771;SDS011;12556;55.748;13.194;2022-07-25T02:03:56;4.17;;;3.67;;
11771;SDS011;12556;55.748;13.194;2022-07-25T02:06:23;7.93;;;3.67;;
11771;SDS011;12556;55.748;13.194;2022-07-25T02:08:50;6.37;;;3.87;;
11771;SDS011;12556;55.748;13.194;2022-07-25T02:11:16;7.00;;;4.03;;
11771;SDS011;12556;55.748;13.194;2022-07-25T02:13:45;6.70;;;3.83;;
11771;SDS011;12556;55.748;13.194;2022-07-25T02:16:12;5.07;;;3.90;;
11771;SDS011;12556;55.748;13.194;2022-07-25T02:18:39;5.07;;;3.83;;
11771;SDS011;12556;55.748;13.194;2022-07-25T02:21:06;6.00;;;3.80;;
11771;SDS011;12556;55.748;13.194;2022-07-25T02:23:34;5.57;;;3.80;;
11771;SDS011;12556;55.748;13.194;2022-07-25T02:26:01;5.53;;;3.40;;
11771;SDS011;12556;55.748;13.194;2022-07-25T02:28:28;5.23;;;4.03;;
11771;SDS011;12556;55.748;13.194;2022-07-25T02:30:57;10.10;;;3.87;;
11771;SDS011;12556;55.748;13.194;2022-07-25T02:33:24;7.23;;;3.93;;
11771;SDS011;12556;55.748;13.194;2022-07-25T02:35:50;4.77;;;3.57;;
11771;SDS011;12556;55.748;13.194;2022-07-25T02:38:17;4.97;;;3.30;;
11771;SDS011;12556;55.748;13.194;2022-07-25T02:40:44;7.17;;;4.40;;
11771;SDS011;12556;55.748;13.194;2022-07-25T02:43:11;4.23;;;3.73;;
11771;SDS011;12556;55.748;13.194;2022-07-25T02:45:38;6.70;;;3.40;;
11771;SDS011;12556;55.748;13.194;2022-07-25T02:48:07;4.73;;;3.43;;
11771;SDS011;12556;55.748;13.194;2022-07-25T02:50:33;4.23;;;3.63;;
11771;SDS011;12556;55.748;13.194;2022-07-25T02:53:01;5.27;;;3.53;;
11771;SDS011;12556;55.748;13.194;2022-07-25T02:55:28;6.33;;;3.93;;
11771;SDS011;12556;55.748;13.194;2022-07-25T02:57:55;5.00;;;3.30;;
11771;SDS011;12556;55.748;13.194;2022-07-25T03:00:22;6.47;;;3.77;;
11771;SDS011;12556;55.748;13.194;2022-07-25T03:02:50;4.10;;;3.33;;
11771;SDS011;12556;55.748;13.194;2022-07-25T03:05:18;5.77;;;3.73;;
11771;SDS011;12556;55.748;13.194;2022-07-25T03:07:45;6.93;;;3.90;;
11771;SDS011;12556;55.748;13.194;2022-07-25T03:10:12;5.73;;;3.90;;
11771;SDS011;12556;55.748;13.194;2022-07-25T03:12:39;4.37;;;3.97;;
11771;SDS011;12556;55.748;13.194;2022-07-25T03:15:08;4.43;;;3.60;;
11771;SDS011;12556;55.748;13.194;2022-07-25T03:17:36;8.47;;;3.90;;
11771;SDS011;12556;55.748;13.194;2022-07-25T03:20:04;7.67;;;3.57;;
11771;SDS011;12556;55.748;13.194;2022-07-25T03:22:33;7.53;;;3.57;;
11771;SDS011;12556;55.748;13.194;2022-07-25T03:25:01;4.40;;;3.20;;
11771;SDS011;12556;55.748;13.194;2022-07-25T03:27:28;4.33;;;3.53;;
11771;SDS011;12556;55.748;13.194;2022-07-25T03:29:55;4.20;;;3.73;;
11771;SDS011;12556;55.748;13.194;2022-07-25T03:32:22;5.40;;;3.50;;
11771;SDS011;12556;55.748;13.194;2022-07-25T03:34:49;6.67;;;3.50;;
11771;SDS011;12556;55.748;13.194;2022-07-25T03:37:16;5.53;;;3.60;;
11771;SDS011;12556;55.748;13.194;2022-07-25T03:39:45;5.73;;;3.33;;
11771;SDS011;12556;55.748;13.194;2022-07-25T03:42:12;8.27;;;3.57;;
11771;SDS011;12556;55.748;13.194;2022-07-25T03:44:39;3.60;;;3.30;;
11771;SDS011;12556;55.748;13.194;2022-07-25T03:47:06;5.67;;;3.80;;
11771;SDS011;12556;55.748;13.194;2022-07-25T03:49:33;6.43;;;3.47;;
11771;SDS011;12556;55.748;13.194;2022-07-25T03:52:00;5.00;;;3.40;;
11771;SDS011;12556;55.748;13.194;2022-07-25T03:54:27;6.57;;;3.87;;
11771;SDS011;12556;55.748;13.194;2022-07-25T03:56:56;5.77;;;3.77;;
11771;SDS011;12556;55.748;13.194;2022-07-25T03:59:23;8.17;;;3.53;;
11771;SDS011;12556;55.748;13.194;2022-07-25T04:01:50;6.53;;;3.73;;
11771;SDS011;12556;55.748;13.194;2022-07-25T04:04:17;5.37;;;3.30;;
11771;SDS011;12556;55.748;13.194;2022-07-25T04:06:45;4.47;;;4.03;;
11771;SDS011;12556;55.748;13.194;2022-07-25T04:09:12;5.17;;;3.10;;
11771;SDS011;12556;55.748;13.194;2022-07-25T04:11:39;6.07;;;3.67;;
11771;SDS011;12556;55.748;13.194;2022-07-25T04:14:08;4.33;;;3.20;;
11771;SDS011;12556;55.748;13.194;2022-07-25T04:16:35;5.17;;;3.50;;
11771;SDS011;12556;55.748;13.194;2022-07-25T04:19:02;10.27;;;3.97;;
11771;SDS011;12556;55.748;13.194;2022-07-25T04:21:29;5.07;;;3.37;;
11771;SDS011;12556;55.748;13.194;2022-07-25T04:23:56;4.97;;;3.20;;
11771;SDS011;12556;55.748;13.194;2022-07-25T04:26:23;7.50;;;3.40;;
11771;SDS011;12556;55.748;13.194;2022-07-25T04:28:50;4.43;;;3.43;;
11771;SDS011;12556;55.748;13.194;2022-07-25T04:31:18;4.00;;;3.70;;
11771;SDS011;12556;55.748;13.194;2022-07-25T04:33:45;5.90;;;3.67;;
11771;SDS011;12556;55.748;13.194;2022-07-25T04:36:12;4.97;;;3.30;;
11771;SDS011;12556;55.748;13.194;2022-07-25T04:38:39;7.83;;;4.00;;
11771;SDS011;12556;55.748;13.194;2022-07-25T04:41:05;4.67;;;3.37;;
11771;SDS011;12556;55.748;13.194;2022-07-25T04:43:32;5.00;;;3.70;;
11771;SDS011;12556;55.748;13.194;2022-07-25T04:45:59;4.53;;;3.10;;
11771;SDS011;12556;55.748;13.194;2022-07-25T04:48:27;4.00;;;3.37;;
11771;SDS011;12556;55.748;13.194;2022-07-25T04:50:54;7.20;;;3.63;;
11771;SDS011;12556;55.748;13.194;2022-07-25T04:53:21;5.17;;;3.43;;
11771;SDS011;12556;55.748;13.194;2022-07-25T04:55:48;7.20;;;3.50;;
11771;SDS011;12556;55.748;13.194;2022-07-25T04:58:15;6.03;;;3.30;;
11771;SDS011;12556;55.748;13.194;2022-07-25T05:00:42;4.63;;;3.10;;
11771;SDS011;12556;55.748;13.194;2022-07-25T05:03:09;3.60;;;3.30;;
11771;SDS011;12556;55.748;13.194;2022-07-25T05:05:38;5.30;;;3.47;;
11771;SDS011;12556;55.748;13.194;2022-07-25T05:08:05;3.50;;;3.00;;
11771;SDS011;12556;55.748;13.194;2022-07-25T05:10:31;4.60;;;3.30;;
11771;SDS011;12556;55.748;13.194;2022-07-25T05:12:58;6.67;;;2.77;;
11771;SDS011;12556;55.748;13.194;2022-07-25T05:15:25;5.37;;;2.90;;
11771;SDS011;12556;55.748;13.194;2022-07-25T05:17:52;4.10;;;2.80;;
11771;SDS011;12556;55.748;13.194;2022-07-25T05:20:19;4.30;;;2.97;;
11771;SDS011;12556;55.748;13.194;2022-07-25T05:22:47;6.90;;;3.67;;
11771;SDS011;12556;55.748;13.194;2022-07-25T05:25:14;3.70;;;3.20;;
11771;SDS011;12556;55.748;13.194;2022-07-25T05:27:41;4.20;;;3.20;;
11771;SDS011;12556;55.748;13.194;2022-07-25T05:30:08;4.27;;;2.90;;
11771;SDS011;12556;55.748;13.194;2022-07-25T05:32:36;4.13;;;3.00;;
11771;SDS011;12556;55.748;13.194;2022-07-25T05:35:04;5.73;;;3.53;;
11771;SDS011;12556;55.748;13.194;2022-07-25T05:37:33;5.27;;;3.27;;
11771;SDS011;12556;55.748;13.194;2022-07-25T05:40:01;4.27;;;2.70;;
11771;SDS011;12556;55.748;13.194;2022-07-25T05:42:28;3.67;;;2.77;;
11771;SDS011;12556;55.748;13.194;2022-07-25T05:44:56;3.43;;;2.90;;
11771;SDS011;12556;55.748;13.194;2022-07-25T05:47:22;5.07;;;3.00;;
11771;SDS011;12556;55.748;13.194;2022-07-25T05:49:49;4.17;;;2.97;;
11771;SDS011;12556;55.748;13.194;2022-07-25T05:52:16;4.37;;;3.20;;
11771;SDS011;12556;55.748;13.194;2022-07-25T05:54:43;5.57;;;3.30;;
11771;SDS011;12556;55.748;13.194;2022-07-25T05:57:11;3.43;;;3.07;;
11771;SDS011;12556;55.748;13.194;2022-07-25T05:59:38;5.00;;;2.97;;
11771;SDS011;12556;55.748;13.194;2022-07-25T06:02:06;4.27;;;3.07;;
11771;SDS011;12556;55.748;13.194;2022-07-25T06:04:33;3.80;;;2.70;;
11771;SDS011;12556;55.748;13.194;2022-07-25T06:07:00;3.63;;;2.60;;
11771;SDS011;12556;55.748;13.194;2022-07-25T06:09:26;2.90;;;2.70;;
11771;SDS011;12556;55.748;13.194;2022-07-25T06:11:54;4.00;;;2.73;;
11771;SDS011;12556;55.748;13.194;2022-07-25T06:14:22;3.13;;;2.70;;
11771;SDS011;12556;55.748;13.194;2022-07-25T06:16:49;3.30;;;2.80;;
11771;SDS011;12556;55.748;13.194;2022-07-25T06:19:16;3.77;;;2.70;;
11771;SDS011;12556;55.748;13.194;2022-07-25T06:21:43;3.28;;;2.70;;
11771;SDS011;12556;55.748;13.194;2022-07-25T06:24:10;4.00;;;2.67;;
11771;SDS011;12556;55.748;13.194;2022-07-25T06:26:37;2.70;;;2.50;;
11771;SDS011;12556;55.748;13.194;2022-07-25T06:29:04;2.65;;;2.45;;
11771;SDS011;12556;55.748;13.194;2022-07-25T06:31:32;2.83;;;2.40;;
11771;SDS011;12556;55.748;13.194;2022-07-25T06:33:59;2.80;;;2.60;;
11771;SDS011;12556;55.748;13.194;2022-07-25T06:36:26;3.13;;;2.45;;
11771;SDS011;12556;55.748;13.194;2022-07-25T06:38:53;3.38;;;3.00;;
11771;SDS011;12556;55.748;13.194;2022-07-25T06:41:20;2.53;;;2.30;;
11771;SDS011;12556;55.748;13.194;2022-07-25T06:43:46;3.63;;;2.40;;
11771;SDS011;12556;55.748;13.194;2022-07-25T06:46:13;3.05;;;2.50;;
11771;SDS011;12556;55.748;13.194;2022-07-25T06:48:41;4.55;;;2.38;;
11771;SDS011;12556;55.748;13.194;2022-07-25T06:51:09;3.13;;;2.40;;
11771;SDS011;12556;55.748;13.194;2022-07-25T06:53:36;7.82;;;2.45;;
11771;SDS011;12556;55.748;13.194;2022-07-25T06:56:03;3.47;;;2.70;;
11771;SDS011;12556;55.748;13.194;2022-07-25T06:58:30;2.83;;;2.60;;
11771;SDS011;12556;55.748;13.194;2022-07-25T07:00:57;6.05;;;2.40;;
11771;SDS011;12556;55.748;13.194;2022-07-25T07:03:25;3.78;;;3.00;;
11771;SDS011;12556;55.748;13.194;2022-07-25T07:05:53;4.00;;;2.47;;
11771;SDS011;12556;55.748;13.194;2022-07-25T07:08:20;4.35;;;2.53;;
11771;SDS011;12556;55.748;13.194;2022-07-25T07:10:47;3.28;;;2.45;;
11771;SDS011;12556;55.748;13.194;2022-07-25T07:13:14;2.20;;;2.10;;
11771;SDS011;12556;55.748;13.194;2022-07-25T07:15:43;2.47;;;2.28;;
11771;SDS011;12556;55.748;13.194;2022-07-25T07:18:13;3.38;;;2.60;;
11771;SDS011;12556;55.748;13.194;2022-07-25T07:20:40;5.32;;;2.40;;
11771;SDS011;12556;55.748;13.194;2022-07-25T07:23:08;2.88;;;2.05;;
11771;SDS011;12556;55.748;13.194;2022-07-25T07:25:36;2.67;;;2.47;;
11771;SDS011;12556;55.748;13.194;2022-07-25T07:28:03;2.38;;;1.95;;
11771;SDS011;12556;55.748;13.194;2022-07-25T07:30:30;4.47;;;1.90;;
11771;SDS011;12556;55.748;13.194;2022-07-25T07:32:57;4.53;;;2.17;;
11771;SDS011;12556;55.748;13.194;2022-07-25T07:35:25;3.25;;;1.92;;
11771;SDS011;12556;55.748;13.194;2022-07-25T07:37:52;2.17;;;1.85;;
11771;SDS011;12556;55.748;13.194;2022-07-25T07:40:20;2.30;;;2.05;;
11771;SDS011;12556;55.748;13.194;2022-07-25T07:42:48;2.92;;;2.38;;
11771;SDS011;12556;55.748;13.194;2022-07-25T07:45:16;2.00;;;1.90;;
11771;SDS011;12556;55.748;13.194;2022-07-25T07:47:44;2.72;;;1.63;;
11771;SDS011;12556;55.748;13.194;2022-07-25T07:50:13;2.90;;;1.90;;
11771;SDS011;12556;55.748;13.194;2022-07-25T07:52:41;2.15;;;1.85;;
11771;SDS011;12556;55.748;13.194;2022-07-25T07:55:08;2.75;;;1.98;;
11771;SDS011;12556;55.748;13.194;2022-07-25T07:57:54;2.95;;;2.10;;
11771;SDS011;12556;55.748;13.194;2022-07-25T08:00:21;2.03;;;1.92;;
11771;SDS011;12556;55.748;13.194;2022-07-25T08:02:49;2.17;;;1.92;;
11771;SDS011;12556;55.748;13.194;2022-07-25T08:05:21;6.63;;;2.10;;
11771;SDS011;12556;55.748;13.194;2022-07-25T08:07:48;2.53;;;1.70;;
11771;SDS011;12556;55.748;13.194;2022-07-25T08:10:17;2.38;;;2.17;;
11771;SDS011;12556;55.748;13.194;2022-07-25T08:12:45;3.53;;;1.92;;
11771;SDS011;12556;55.748;13.194;2022-07-25T08:15:14;2.00;;;1.77;;
11771;SDS011;12556;55.748;13.194;2022-07-25T08:17:41;2.63;;;2.00;;
11771;SDS011;12556;55.748;13.194;2022-07-25T08:20:09;4.90;;;2.20;;
11771;SDS011;12556;55.748;13.194;2022-07-25T08:22:37;1.85;;;1.75;;
11771;SDS011;12556;55.748;13.194;2022-07-25T08:25:05;3.10;;;2.08;;
11771;SDS011;12556;55.748;13.194;2022-07-25T08:27:34;5.78;;;1.95;;
11771;SDS011;12556;55.748;13.194;2022-07-25T08:30:01;2.55;;;2.08;;
11771;SDS011;12556;55.748;13.194;2022-07-25T08:32:30;2.03;;;1.88;;
11771;SDS011;12556;55.748;13.194;2022-07-25T08:34:58;4.50;;;1.85;;
11771;SDS011;12556;55.748;13.194;2022-07-25T08:37:26;5.80;;;2.08;;
11771;SDS011;12556;55.748;13.194;2022-07-25T08:39:53;2.22;;;1.90;;
11771;SDS011;12556;55.748;13.194;2022-07-25T08:42:20;2.80;;;2.10;;
11771;SDS011;12556;55.748;13.194;2022-07-25T08:44:49;3.53;;;2.08;;
11771;SDS011;12556;55.748;13.194;2022-07-25T08:47:23;2.47;;;2.28;;
11771;SDS011;12556;55.748;13.194;2022-07-25T08:49:54;2.05;;;1.90;;
11771;SDS011;12556;55.748;13.194;2022-07-25T08:52:21;3.75;;;2.25;;
11771;SDS011;12556;55.748;13.194;2022-07-25T08:54:49;2.10;;;1.95;;
11771;SDS011;12556;55.748;13.194;2022-07-25T08:57:16;3.95;;;1.80;;
11771;SDS011;12556;55.748;13.194;2022-07-25T08:59:43;5.63;;;1.90;;
11771;SDS011;12556;55.748;13.194;2022-07-25T09:02:11;2.40;;;2.00;;
11771;SDS011;12556;55.748;13.194;2022-07-25T09:04:38;3.08;;;2.33;;
11771;SDS011;12556;55.748;13.194;2022-07-25T09:07:08;4.68;;;2.15;;
11771;SDS011;12556;55.748;13.194;2022-07-25T09:09:36;2.53;;;2.03;;
11771;SDS011;12556;55.748;13.194;2022-07-25T09:12:04;2.47;;;2.00;;
11771;SDS011;12556;55.748;13.194;2022-07-25T09:14:39;3.65;;;2.70;;
11771;SDS011;12556;55.748;13.194;2022-07-25T09:17:07;2.75;;;2.05;;
11771;SDS011;12556;55.748;13.194;2022-07-25T09:19:34;2.05;;;1.90;;
11771;SDS011;12556;55.748;13.194;2022-07-25T09:22:01;4.47;;;2.20;;
11771;SDS011;12556;55.748;13.194;2022-07-25T09:24:32;5.18;;;2.20;;
11771;SDS011;12556;55.748;13.194;2022-07-25T09:26:59;2.15;;;2.00;;
11771;SDS011;12556;55.748;13.194;2022-07-25T09:29:33;2.53;;;2.03;;
11771;SDS011;12556;55.748;13.194;2022-07-25T09:32:01;1.90;;;1.80;;
11771;SDS011;12556;55.748;13.194;2022-07-25T09:34:41;3.33;;;2.13;;
11771;SDS011;12556;55.748;13.194;2022-07-25T09:37:10;4.55;;;2.15;;
11771;SDS011;12556;55.748;13.194;2022-07-25T09:39:40;21.70;;;5.97;;
11771;SDS011;12556;55.748;13.194;2022-07-25T09:42:14;4.93;;;2.67;;
11771;SDS011;12556;55.748;13.194;2022-07-25T09:44:43;2.45;;;2.22;;
11771;SDS011;12556;55.748;13.194;2022-07-25T09:47:11;3.28;;;1.90;;
11771;SDS011;12556;55.748;13.194;2022-07-25T09:49:40;2.40;;;2.20;;
11771;SDS011;12556;55.748;13.194;2022-07-25T09:52:08;3.88;;;2.72;;
11771;SDS011;12556;55.748;13.194;2022-07-25T09:54:35;2.40;;;2.20;;
11771;SDS011;12556;55.748;13.194;2022-07-25T09:57:04;2.95;;;2.00;;
11771;SDS011;12556;55.748;13.194;2022-07-25T09:59:31;3.83;;;2.28;;
11771;SDS011;12556;55.748;13.194;2022-07-25T10:01:59;2.88;;;2.28;;
11771;SDS011;12556;55.748;13.194;2022-07-25T10:04:35;2.33;;;2.10;;
11771;SDS011;12556;55.748;13.194;2022-07-25T10:07:10;3.95;;;2.25;;
11771;SDS011;12556;55.748;13.194;2022-07-25T10:09:40;3.75;;;2.22;;
11771;SDS011;12556;55.748;13.194;2022-07-25T10:12:10;2.40;;;2.20;;
11771;SDS011;12556;55.748;13.194;2022-07-25T10:14:39;2.38;;;2.17;;
11771;SDS011;12556;55.748;13.194;2022-07-25T10:17:07;3.60;;;2.50;;
11771;SDS011;12556;55.748;13.194;2022-07-25T10:19:35;2.47;;;2.28;;
11771;SDS011;12556;55.748;13.194;2022-07-25T10:22:06;4.90;;;2.40;;
11771;SDS011;12556;55.748;13.194;2022-07-25T10:24:33;3.90;;;2.33;;
11771;SDS011;12556;55.748;13.194;2022-07-25T10:27:06;3.10;;;2.22;;
11771;SDS011;12556;55.748;13.194;2022-07-25T10:29:35;2.97;;;2.20;;
11771;SDS011;12556;55.748;13.194;2022-07-25T10:32:04;2.60;;;2.40;;
11771;SDS011;12556;55.748;13.194;2022-07-25T10:34:32;2.20;;;2.00;;
11771;SDS011;12556;55.748;13.194;2022-07-25T10:37:09;3.03;;;2.05;;
11771;SDS011;12556;55.748;13.194;2022-07-25T10:39:38;1.98;;;1.88;;
11771;SDS011;12556;55.748;13.194;2022-07-25T10:42:06;2.25;;;2.05;;
11771;SDS011;12556;55.748;13.194;2022-07-25T10:44:42;10.48;;;3.50;;
11771;SDS011;12556;55.748;13.194;2022-07-25T10:47:11;8.30;;;2.72;;
11771;SDS011;12556;55.748;13.194;2022-07-25T10:49:39;3.30;;;2.10;;
11771;SDS011;12556;55.748;13.194;2022-07-25T10:52:13;2.47;;;2.22;;
11771;SDS011;12556;55.748;13.194;2022-07-25T10:54:50;2.00;;;1.80;;
11771;SDS011;12556;55.748;13.194;2022-07-25T10:57:19;3.58;;;1.92;;
11771;SDS011;12556;55.748;13.194;2022-07-25T10:59:47;3.83;;;2.03;;
11771;SDS011;12556;55.748;13.194;2022-07-25T11:02:14;2.67;;;2.17;;
11771;SDS011;12556;55.748;13.194;2022-07-25T11:04:42;3.05;;;2.33;;
11771;SDS011;12556;55.748;13.194;2022-07-25T11:07:10;3.05;;;2.08;;
11771;SDS011;12556;55.748;13.194;2022-07-25T11:09:39;2.20;;;2.00;;
11771;SDS011;12556;55.748;13.194;2022-07-25T11:12:07;2.00;;;1.90;;
11771;SDS011;12556;55.748;13.194;2022-07-25T11:14:35;2.20;;;2.00;;
11771;SDS011;12556;55.748;13.194;2022-07-25T11:17:10;2.60;;;2.40;;
11771;SDS011;12556;55.748;13.194;2022-07-25T11:19:39;3.67;;;2.00;;
11771;SDS011;12556;55.748;13.194;2022-07-25T11:22:06;3.47;;;1.90;;
11771;SDS011;12556;55.748;13.194;2022-07-25T11:24:34;2.22;;;2.00;;
11771;SDS011;12556;55.748;13.194;2022-07-25T11:27:02;3.92;;;2.10;;
11771;SDS011;12556;55.748;13.194;2022-07-25T11:29:29;2.33;;;2.13;;
11771;SDS011;12556;55.748;13.194;2022-07-25T11:31:57;7.60;;;2.38;;
11771;SDS011;12556;55.748;13.194;2022-07-25T11:34:26;4.38;;;2.10;;
11771;SDS011;12556;55.748;13.194;2022-07-25T11:36:55;2.10;;;2.00;;
11771;SDS011;12556;55.748;13.194;2022-07-25T11:39:23;2.85;;;2.50;;
11771;SDS011;12556;55.748;13.194;2022-07-25T11:41:58;3.60;;;2.17;;
11771;SDS011;12556;55.748;13.194;2022-07-25T11:44:30;2.63;;;2.42;;
11771;SDS011;12556;55.748;13.194;2022-07-25T11:47:02;2.13;;;1.83;;
11771;SDS011;12556;55.748;13.194;2022-07-25T11:49:31;3.20;;;2.25;;
11771;SDS011;12556;55.748;13.194;2022-07-25T11:52:16;3.30;;;2.10;;
11771;SDS011;12556;55.748;13.194;2022-07-25T11:54:48;2.58;;;2.38;;
11771;SDS011;12556;55.748;13.194;2022-07-25T11:57:19;3.80;;;2.22;;
11771;SDS011;12556;55.748;13.194;2022-07-25T11:59:46;1.92;;;1.83;;
11771;SDS011;12556;55.748;13.194;2022-07-25T12:02:19;2.47;;;2.22;;
11771;SDS011;12556;55.748;13.194;2022-07-25T12:04:55;2.85;;;2.10;;
11771;SDS011;12556;55.748;13.194;2022-07-25T12:07:33;3.67;;;1.98;;
11771;SDS011;12556;55.748;13.194;2022-07-25T12:10:04;4.82;;;2.20;;
11771;SDS011;12556;55.748;13.194;2022-07-25T12:12:42;6.47;;;2.78;;
11771;SDS011;12556;55.748;13.194;2022-07-25T12:15:13;2.92;;;1.88;;
11771;SDS011;12556;55.748;13.194;2022-07-25T12:17:41;2.92;;;2.33;;
11771;SDS011;12556;55.748;13.194;2022-07-25T12:20:16;2.30;;;2.10;;
11771;SDS011;12556;55.748;13.194;2022-07-25T12:22:45;3.45;;;2.17;;
11771;SDS011;12556;55.748;13.194;2022-07-25T12:25:12;3.53;;;2.00;;
11771;SDS011;12556;55.748;13.194;2022-07-25T12:27:40;4.63;;;2.10;;
11771;SDS011;12556;55.748;13.194;2022-07-25T12:30:07;2.55;;;2.35;;
11771;SDS011;12556;55.748;13.194;2022-07-25T12:32:34;4.57;;;2.90;;
11771;SDS011;12556;55.748;13.194;2022-07-25T12:35:02;2.22;;;2.03;;
11771;SDS011;12556;55.748;13.194;2022-07-25T12:37:31;3.28;;;2.00;;
11771;SDS011;12556;55.748;13.194;2022-07-25T12:39:58;2.60;;;2.40;;
11771;SDS011;12556;55.748;13.194;2022-07-25T12:42:25;2.47;;;2.17;;
11771;SDS011;12556;55.748;13.194;2022-07-25T12:44:53;2.88;;;2.00;;
11771;SDS011;12556;55.748;13.194;2022-07-25T12:47:20;2.90;;;2.03;;
11771;SDS011;12556;55.748;13.194;2022-07-25T12:49:48;3.70;;;2.15;;
11771;SDS011;12556;55.748;13.194;2022-07-25T12:52:14;4.43;;;2.80;;
11771;SDS011;12556;55.748;13.194;2022-07-25T12:54:43;5.32;;;2.65;;
11771;SDS011;12556;55.748;13.194;2022-07-25T12:57:10;5.60;;;2.65;;
11771;SDS011;12556;55.748;13.194;2022-07-25T12:59:38;8.35;;;3.70;;
11771;SDS011;12556;55.748;13.194;2022-07-25T13:02:06;3.75;;;2.80;;
11771;SDS011;12556;55.748;13.194;2022-07-25T13:04:33;2.85;;;2.65;;
11771;SDS011;12556;55.748;13.194;2022-07-25T13:07:00;20.35;;;4.40;;
11771;SDS011;12556;55.748;13.194;2022-07-25T13:09:27;10.70;;;3.67;;
11771;SDS011;12556;55.748;13.194;2022-07-25T13:11:56;5.15;;;2.88;;
11771;SDS011;12556;55.748;13.194;2022-07-25T13:14:23;8.73;;;3.05;;
11771;SDS011;12556;55.748;13.194;2022-07-25T13:16:50;6.68;;;2.42;;
11771;SDS011;12556;55.748;13.194;2022-07-25T13:19:17;6.05;;;2.30;;
11771;SDS011;12556;55.748;13.194;2022-07-25T13:21:44;4.10;;;2.80;;
11771;SDS011;12556;55.748;13.194;2022-07-25T13:24:11;4.18;;;2.30;;
11771;SDS011;12556;55.748;13.194;2022-07-25T13:26:38;3.10;;;2.05;;
11771;SDS011;12556;55.748;13.194;2022-07-25T13:29:06;2.92;;;2.63;;
11771;SDS011;12556;55.748;13.194;2022-07-25T13:31:35;3.38;;;2.58;;
11771;SDS011;12556;55.748;13.194;2022-07-25T13:34:02;4.75;;;2.88;;
11771;SDS011;12556;55.748;13.194;2022-07-25T13:36:30;2.97;;;2.35;;
11771;SDS011;12556;55.748;13.194;2022-07-25T13:38:57;3.17;;;2.33;;
11771;SDS011;12556;55.748;13.194;2022-07-25T13:41:24;12.73;;;3.63;;
11771;SDS011;12556;55.748;13.194;2022-07-25T13:43:51;10.50;;;3.83;;
11771;SDS011;12556;55.748;13.194;2022-07-25T13:46:19;21.13;;;4.72;;
11771;SDS011;12556;55.748;13.194;2022-07-25T13:48:47;17.02;;;4.80;;
11771;SDS011;12556;55.748;13.194;2022-07-25T13:51:13;2.80;;;2.50;;
11771;SDS011;12556;55.748;13.194;2022-07-25T13:53:40;5.68;;;2.90;;
11771;SDS011;12556;55.748;13.194;2022-07-25T13:56:09;5.47;;;2.83;;
11771;SDS011;12556;55.748;13.194;2022-07-25T13:58:36;7.60;;;3.25;;
11771;SDS011;12556;55.748;13.194;2022-07-25T14:01:03;4.70;;;2.90;;
11771;SDS011;12556;55.748;13.194;2022-07-25T14:03:33;7.03;;;2.58;;
11771;SDS011;12556;55.748;13.194;2022-07-25T14:06:00;8.02;;;4.15;;
11771;SDS011;12556;55.748;13.194;2022-07-25T14:08:28;6.05;;;3.13;;
11771;SDS011;12556;55.748;13.194;2022-07-25T14:10:55;8.63;;;3.38;;
11771;SDS011;12556;55.748;13.194;2022-07-25T14:13:22;8.38;;;4.10;;
11771;SDS011;12556;55.748;13.194;2022-07-25T14:15:49;18.15;;;4.90;;
11771;SDS011;12556;55.748;13.194;2022-07-25T14:18:16;4.03;;;2.97;;
11771;SDS011;12556;55.748;13.194;2022-07-25T14:20:44;3.22;;;2.92;;
11771;SDS011;12556;55.748;13.194;2022-07-25T14:23:11;7.90;;;3.13;;
11771;SDS011;12556;55.748;13.194;2022-07-25T14:25:38;8.93;;;3.45;;
11771;SDS011;12556;55.748;13.194;2022-07-25T14:28:05;3.70;;;3.40;;
11771;SDS011;12556;55.748;13.194;2022-07-25T14:30:32;5.05;;;3.45;;
11771;SDS011;12556;55.748;13.194;2022-07-25T14:32:59;4.35;;;3.10;;
11771;SDS011;12556;55.748;13.194;2022-07-25T14:35:26;4.38;;;3.13;;
11771;SDS011;12556;55.748;13.194;2022-07-25T14:37:54;4.88;;;3.50;;